createdAt,value
2018-09-17T00:00:18.299Z,975.73
2018-09-17T00:01:18.348Z,975.71
2018-09-17T00:02:18.424Z,975.71
2018-09-17T00:03:18.451Z,975.72
2018-09-17T00:04:18.507Z,975.70
2018-09-17T00:05:18.554Z,975.69
2018-09-17T00:06:18.603Z,975.72
2018-09-17T00:07:18.688Z,975.68
2018-09-17T00:08:18.700Z,975.65
2018-09-17T00:09:18.760Z,975.68
2018-09-17T00:10:18.809Z,975.64
2018-09-17T00:11:18.853Z,975.67
2018-09-17T00:12:18.921Z,975.68
2018-09-17T00:13:18.988Z,975.67
2018-09-17T00:14:19.020Z,975.67
2018-09-17T00:15:19.058Z,975.67
2018-09-17T00:16:19.111Z,975.63
2018-09-17T00:17:19.155Z,975.67
2018-09-17T00:18:19.222Z,975.65
2018-09-17T00:19:19.272Z,975.64
2018-09-17T00:20:19.311Z,975.64
2018-09-17T00:21:19.363Z,975.64
2018-09-17T00:22:19.407Z,975.68
2018-09-17T00:23:19.475Z,975.70
2018-09-17T00:24:19.524Z,975.68
2018-09-17T00:25:19.565Z,975.66
2018-09-17T00:26:19.606Z,975.70
2018-09-17T00:27:19.665Z,975.68
2018-09-17T00:28:19.710Z,975.68
2018-09-17T00:29:19.779Z,975.70
2018-09-17T00:30:19.807Z,975.63
2018-09-17T00:31:19.854Z,975.69
2018-09-17T00:32:19.907Z,975.70
2018-09-17T00:33:19.963Z,975.70
2018-09-17T00:34:20.030Z,975.69
2018-09-17T00:35:20.057Z,975.70
2018-09-17T00:36:20.139Z,975.69
2018-09-17T00:37:20.161Z,975.71
2018-09-17T00:38:20.208Z,975.68
2018-09-17T00:39:20.292Z,975.68
2018-09-17T00:40:20.309Z,975.63
2018-09-17T00:41:20.390Z,975.64
2018-09-17T00:42:20.407Z,975.66
2018-09-17T00:43:20.459Z,975.61
2018-09-17T00:44:20.513Z,975.60
2018-09-17T00:45:20.558Z,975.64
2018-09-17T00:46:20.626Z,975.61
2018-09-17T00:47:20.679Z,975.61
2018-09-17T00:48:20.757Z,975.58
2018-09-17T00:49:20.787Z,975.56
2018-09-17T00:50:20.809Z,975.59
2018-09-17T00:51:20.861Z,975.62
2018-09-17T00:52:20.933Z,975.58
2018-09-17T00:53:20.963Z,975.61
2018-09-17T00:54:21.010Z,975.60
2018-09-17T00:55:21.064Z,975.62
2018-09-17T00:56:21.104Z,975.62
2018-09-17T00:57:21.186Z,975.59
2018-09-17T00:58:21.212Z,975.59
2018-09-17T00:59:21.261Z,975.60
2018-09-17T01:00:21.311Z,975.60
2018-09-17T01:01:21.358Z,975.61
2018-09-17T01:02:21.486Z,975.58
2018-09-17T01:03:21.486Z,975.64
2018-09-17T01:04:21.510Z,975.63
2018-09-17T01:05:21.560Z,975.63
2018-09-17T01:06:21.611Z,975.64
2018-09-17T01:07:21.659Z,975.62
2018-09-17T01:08:21.739Z,975.64
2018-09-17T01:09:21.761Z,975.61
2018-09-17T01:10:21.809Z,975.63
2018-09-17T01:11:21.861Z,975.59
2018-09-17T01:12:21.909Z,975.59
2018-09-17T01:13:21.983Z,975.63
2018-09-17T01:14:22.012Z,975.61
2018-09-17T01:15:22.088Z,975.60
2018-09-17T01:16:22.131Z,975.61
2018-09-17T01:17:22.161Z,975.59
2018-09-17T01:18:22.215Z,975.62
2018-09-17T01:19:22.262Z,975.60
2018-09-17T01:20:22.336Z,975.59
2018-09-17T01:21:22.361Z,975.56
2018-09-17T01:22:22.413Z,975.55
2018-09-17T01:23:22.458Z,975.51
2018-09-17T01:24:22.509Z,975.52
2018-09-17T01:25:22.584Z,975.51
2018-09-17T01:26:22.609Z,975.50
2018-09-17T01:27:22.663Z,975.48
2018-09-17T01:28:22.712Z,975.47
2018-09-17T01:29:22.789Z,975.44
2018-09-17T01:30:22.873Z,975.41
2018-09-17T01:31:22.874Z,975.44
2018-09-17T01:32:22.938Z,975.44
2018-09-17T01:33:22.980Z,975.44
2018-09-17T01:34:23.034Z,975.44
2018-09-17T01:35:23.064Z,975.42
2018-09-17T01:36:23.153Z,975.40
2018-09-17T01:37:23.169Z,975.39
2018-09-17T01:38:23.219Z,975.35
2018-09-17T01:39:23.264Z,975.39
2018-09-17T01:40:23.319Z,975.37
2018-09-17T01:41:23.384Z,975.39
2018-09-17T01:42:23.432Z,975.37
2018-09-17T01:43:23.463Z,975.39
2018-09-17T01:44:23.512Z,975.39
2018-09-17T01:45:23.560Z,975.41
2018-09-17T01:46:23.672Z,975.38
2018-09-17T01:47:23.688Z,975.41
2018-09-17T01:48:23.715Z,975.44
2018-09-17T01:49:23.766Z,975.43
2018-09-17T01:50:23.814Z,975.43
2018-09-17T01:51:23.866Z,975.41
2018-09-17T01:52:23.934Z,975.41
2018-09-17T01:53:23.965Z,975.44
2018-09-17T01:54:24.014Z,975.43
2018-09-17T01:55:24.061Z,975.41
2018-09-17T01:56:24.120Z,975.42
2018-09-17T01:57:24.193Z,975.43
2018-09-17T01:58:24.221Z,975.44
2018-09-17T01:59:24.262Z,975.42
2018-09-17T02:00:24.309Z,975.41
2018-09-17T02:01:24.379Z,975.41
2018-09-17T02:02:24.428Z,975.43
2018-09-17T02:03:24.462Z,975.40
2018-09-17T02:04:24.539Z,975.39
2018-09-17T02:05:24.571Z,975.43
2018-09-17T02:06:24.611Z,975.44
2018-09-17T02:07:24.668Z,975.40
2018-09-17T02:08:24.760Z,975.42
2018-09-17T02:09:24.779Z,975.38
2018-09-17T02:10:24.836Z,975.39
2018-09-17T02:11:24.858Z,975.34
2018-09-17T02:12:24.949Z,975.36
2018-09-17T02:13:24.961Z,975.34
2018-09-17T02:14:25.039Z,975.32
2018-09-17T02:15:25.062Z,975.33
2018-09-17T02:16:25.112Z,975.34
2018-09-17T02:17:25.160Z,975.36
2018-09-17T02:18:25.218Z,975.37
2018-09-17T02:19:25.329Z,975.38
2018-09-17T02:20:25.314Z,975.35
2018-09-17T02:21:25.359Z,975.41
2018-09-17T02:22:25.412Z,975.40
2018-09-17T02:23:25.456Z,975.39
2018-09-17T02:24:25.552Z,975.38
2018-09-17T02:25:25.560Z,975.39
2018-09-17T02:26:25.613Z,975.39
2018-09-17T02:27:25.675Z,975.35
2018-09-17T02:28:25.707Z,975.32
2018-09-17T02:29:25.781Z,975.35
2018-09-17T02:30:25.811Z,975.34
2018-09-17T02:31:25.864Z,975.31
2018-09-17T02:32:25.905Z,975.26
2018-09-17T02:33:25.956Z,975.26
2018-09-17T02:34:26.034Z,975.23
2018-09-17T02:35:26.068Z,975.26
2018-09-17T02:36:26.104Z,975.28
2018-09-17T02:37:26.161Z,975.24
2018-09-17T02:38:26.208Z,975.23
2018-09-17T02:39:26.286Z,975.25
2018-09-17T02:40:26.309Z,975.30
2018-09-17T02:41:26.356Z,975.33
2018-09-17T02:42:26.406Z,975.33
2018-09-17T02:43:26.454Z,975.37
2018-09-17T02:44:26.537Z,975.37
2018-09-17T02:45:26.551Z,975.40
2018-09-17T02:46:26.603Z,975.38
2018-09-17T02:47:26.658Z,975.33
2018-09-17T02:48:27.134Z,975.38
2018-09-17T02:49:26.774Z,975.39
2018-09-17T02:50:26.824Z,975.42
2018-09-17T02:51:26.868Z,975.38
2018-09-17T02:52:27.040Z,975.38
2018-09-17T02:53:26.962Z,975.39
2018-09-17T02:54:27.000Z,975.39
2018-09-17T02:55:27.070Z,975.36
2018-09-17T02:56:27.098Z,975.37
2018-09-17T02:57:27.173Z,975.35
2018-09-17T02:58:27.202Z,975.38
2018-09-17T02:59:27.324Z,975.37
2018-09-17T03:00:27.318Z,975.38
2018-09-17T03:01:27.368Z,975.42
2018-09-17T03:02:27.427Z,975.37
2018-09-17T03:03:27.452Z,975.43
2018-09-17T03:04:27.502Z,975.41
2018-09-17T03:05:27.547Z,975.45
2018-09-17T03:06:27.599Z,975.44
2018-09-17T03:07:27.669Z,975.47
2018-09-17T03:08:27.695Z,975.47
2018-09-17T03:09:27.745Z,975.47
2018-09-17T03:10:27.797Z,975.50
2018-09-17T03:11:27.844Z,975.48
2018-09-17T03:12:27.918Z,975.52
2018-09-17T03:13:27.955Z,975.51
2018-09-17T03:14:27.997Z,975.48
2018-09-17T03:15:28.070Z,975.51
2018-09-17T03:16:28.094Z,975.52
2018-09-17T03:17:28.168Z,975.49
2018-09-17T03:18:28.200Z,975.51
2018-09-17T03:19:28.246Z,975.49
2018-09-17T03:20:28.294Z,975.52
2018-09-17T03:21:28.347Z,975.52
2018-09-17T03:22:28.432Z,975.55
2018-09-17T03:23:28.444Z,975.53
2018-09-17T03:24:28.556Z,975.52
2018-09-17T03:25:28.538Z,975.54
2018-09-17T03:26:28.591Z,975.52
2018-09-17T03:27:28.659Z,975.50
2018-09-17T03:28:28.696Z,975.51
2018-09-17T03:29:28.743Z,975.54
2018-09-17T03:30:28.826Z,975.52
2018-09-17T03:31:28.862Z,975.51
2018-09-17T03:32:28.909Z,975.52
2018-09-17T03:33:28.972Z,975.53
2018-09-17T03:34:28.997Z,975.56
2018-09-17T03:35:29.044Z,975.57
2018-09-17T03:36:29.120Z,975.57
2018-09-17T03:37:29.143Z,975.58
2018-09-17T03:38:29.211Z,975.59
2018-09-17T03:39:29.246Z,975.62
2018-09-17T03:40:29.287Z,975.58
2018-09-17T03:41:29.342Z,975.60
2018-09-17T03:42:29.390Z,975.61
2018-09-17T03:43:29.475Z,975.58
2018-09-17T03:44:29.505Z,975.65
2018-09-17T03:45:29.547Z,975.58
2018-09-17T03:46:29.617Z,975.63
2018-09-17T03:47:29.637Z,975.62
2018-09-17T03:48:29.739Z,975.66
2018-09-17T03:49:29.777Z,975.66
2018-09-17T03:50:29.792Z,975.71
2018-09-17T03:51:29.837Z,975.71
2018-09-17T03:52:29.892Z,975.70
2018-09-17T03:53:29.935Z,975.76
2018-09-17T03:54:30.015Z,975.76
2018-09-17T03:55:30.038Z,975.77
2018-09-17T03:56:30.088Z,975.79
2018-09-17T03:57:30.152Z,975.80
2018-09-17T03:58:30.191Z,975.84
2018-09-17T03:59:30.258Z,975.82
2018-09-17T04:00:30.317Z,975.86
2018-09-17T04:01:30.338Z,975.89
2018-09-17T04:02:30.509Z,975.89
2018-09-17T04:03:30.438Z,975.90
2018-09-17T04:04:30.517Z,975.92
2018-09-17T04:05:30.544Z,975.92
2018-09-17T04:06:30.589Z,975.94
2018-09-17T04:07:30.637Z,975.93
2018-09-17T04:08:30.697Z,975.98
2018-09-17T04:09:30.768Z,975.96
2018-09-17T04:10:30.789Z,975.96
2018-09-17T04:11:30.871Z,975.99
2018-09-17T04:12:30.888Z,975.96
2018-09-17T04:13:30.939Z,975.98
2018-09-17T04:14:30.989Z,976.01
2018-09-17T04:15:31.041Z,976.01
2018-09-17T04:16:31.138Z,976.00
2018-09-17T04:17:31.143Z,975.99
2018-09-17T04:18:31.191Z,975.97
2018-09-17T04:19:31.240Z,976.00
2018-09-17T04:20:31.295Z,975.95
2018-09-17T04:21:31.369Z,975.95
2018-09-17T04:22:31.391Z,975.95
2018-09-17T04:23:31.443Z,975.97
2018-09-17T04:24:31.491Z,975.95
2018-09-17T04:25:31.564Z,975.94
2018-09-17T04:26:31.592Z,975.94
2018-09-17T04:27:31.643Z,975.96
2018-09-17T04:28:31.720Z,975.99
2018-09-17T04:29:31.737Z,975.99
2018-09-17T04:30:31.790Z,976.02
2018-09-17T04:31:31.857Z,976.03
2018-09-17T04:32:31.919Z,976.06
2018-09-17T04:33:31.953Z,975.99
2018-09-17T04:34:32.017Z,975.99
2018-09-17T04:35:32.044Z,976.02
2018-09-17T04:36:32.113Z,976.02
2018-09-17T04:37:32.168Z,976.03
2018-09-17T04:38:32.196Z,976.00
2018-09-17T04:39:32.267Z,976.00
2018-09-17T04:40:32.296Z,976.05
2018-09-17T04:41:32.362Z,976.07
2018-09-17T04:42:32.400Z,976.08
2018-09-17T04:43:32.443Z,976.08
2018-09-17T04:44:32.521Z,976.08
2018-09-17T04:45:32.565Z,976.09
2018-09-17T04:46:32.612Z,976.10
2018-09-17T04:47:32.653Z,976.14
2018-09-17T04:48:34.628Z,976.14
2018-09-17T04:49:34.628Z,976.18
2018-09-17T04:50:32.798Z,976.21
2018-09-17T04:51:32.846Z,976.18
2018-09-17T04:52:32.900Z,976.21
2018-09-17T04:53:32.952Z,976.20
2018-09-17T04:54:33.630Z,976.19
2018-09-17T04:55:33.048Z,976.23
2018-09-17T04:56:33.103Z,976.22
2018-09-17T04:57:33.156Z,976.23
2018-09-17T04:58:33.211Z,976.19
2018-09-17T04:59:33.662Z,976.24
2018-09-17T05:00:33.328Z,976.24
2018-09-17T05:01:33.347Z,976.22
2018-09-17T05:02:33.399Z,976.18
2018-09-17T05:03:33.455Z,976.27
2018-09-17T05:04:33.500Z,976.24
2018-09-17T05:05:33.647Z,976.29
2018-09-17T05:06:33.606Z,976.34
2018-09-17T05:07:33.647Z,976.26
2018-09-17T05:08:33.700Z,976.30
2018-09-17T05:09:33.754Z,976.32
2018-09-17T05:10:33.817Z,976.31
2018-09-17T05:11:33.851Z,976.32
2018-09-17T05:12:33.903Z,976.34
2018-09-17T05:13:34.001Z,976.30
2018-09-17T05:14:34.004Z,976.31
2018-09-17T05:15:34.069Z,976.31
2018-09-17T05:16:34.099Z,976.33
2018-09-17T05:17:34.189Z,976.34
2018-09-17T05:18:34.200Z,976.39
2018-09-17T05:19:34.253Z,976.38
2018-09-17T05:20:34.365Z,976.38
2018-09-17T05:21:34.376Z,976.36
2018-09-17T05:22:34.404Z,976.38
2018-09-17T05:23:34.485Z,976.34
2018-09-17T05:24:34.507Z,976.33
2018-09-17T05:25:35.447Z,976.34
2018-09-17T05:26:34.607Z,976.37
2018-09-17T05:27:34.657Z,976.37
2018-09-17T05:28:34.724Z,976.37
2018-09-17T05:29:34.769Z,976.34
2018-09-17T05:30:36.640Z,976.36
2018-09-17T05:31:34.859Z,976.35
2018-09-17T05:32:34.906Z,976.34
2018-09-17T05:33:34.976Z,976.39
2018-09-17T05:34:35.005Z,976.38
2018-09-17T05:35:35.054Z,976.37
2018-09-17T05:36:35.101Z,976.40
2018-09-17T05:37:35.156Z,976.41
2018-09-17T05:38:35.233Z,976.37
2018-09-17T05:39:35.253Z,976.39
2018-09-17T05:40:35.307Z,976.43
2018-09-17T05:41:35.355Z,976.39
2018-09-17T05:42:35.415Z,976.43
2018-09-17T05:43:35.481Z,976.43
2018-09-17T05:44:35.611Z,976.46
2018-09-17T05:45:35.576Z,976.50
2018-09-17T05:46:35.616Z,976.55
2018-09-17T05:47:35.665Z,976.53
2018-09-17T05:48:35.706Z,976.57
2018-09-17T05:49:35.781Z,976.57
2018-09-17T05:50:35.852Z,976.58
2018-09-17T05:51:35.881Z,976.54
2018-09-17T05:52:35.910Z,976.58
2018-09-17T05:53:35.982Z,976.51
2018-09-17T05:54:36.009Z,976.52
2018-09-17T05:55:36.064Z,976.57
2018-09-17T05:56:36.131Z,976.54
2018-09-17T05:57:36.161Z,976.54
2018-09-17T05:58:36.210Z,976.54
2018-09-17T05:59:36.304Z,976.51
2018-09-17T06:00:36.309Z,976.54
2018-09-17T06:01:36.362Z,976.50
2018-09-17T06:02:36.410Z,976.54
2018-09-17T06:03:36.471Z,976.54
2018-09-17T06:04:36.567Z,976.52
2018-09-17T06:05:36.624Z,976.52
2018-09-17T06:06:37.150Z,976.52
2018-09-17T06:07:36.660Z,976.54
2018-09-17T06:08:36.720Z,976.52
2018-09-17T06:09:36.776Z,976.53
2018-09-17T06:10:36.812Z,976.54
2018-09-17T06:11:36.898Z,976.57
2018-09-17T06:12:36.914Z,976.52
2018-09-17T06:13:36.962Z,976.52
2018-09-17T06:14:37.019Z,976.50
2018-09-17T06:15:37.090Z,976.55
2018-09-17T06:16:37.133Z,976.52
2018-09-17T06:17:37.164Z,976.51
2018-09-17T06:18:37.211Z,976.55
2018-09-17T06:19:37.267Z,976.52
2018-09-17T06:20:37.335Z,976.53
2018-09-17T06:21:37.393Z,976.53
2018-09-17T06:22:37.447Z,976.55
2018-09-17T06:23:37.467Z,976.59
2018-09-17T06:24:37.515Z,976.60
2018-09-17T06:25:37.579Z,976.63
2018-09-17T06:26:37.647Z,976.62
2018-09-17T06:27:37.693Z,976.67
2018-09-17T06:28:37.784Z,976.67
2018-09-17T06:29:37.805Z,976.65
2018-09-17T06:30:37.816Z,976.70
2018-09-17T06:31:37.865Z,976.67
2018-09-17T06:32:37.937Z,976.70
2018-09-17T06:33:37.997Z,976.74
2018-09-17T06:34:38.021Z,976.75
2018-09-17T06:35:38.069Z,976.76
2018-09-17T06:36:38.131Z,976.83
2018-09-17T06:37:38.202Z,976.78
2018-09-17T06:38:38.261Z,976.77
2018-09-17T06:39:38.274Z,976.79
2018-09-17T06:40:38.332Z,976.77
2018-09-17T06:41:38.425Z,976.75
2018-09-17T06:42:38.425Z,976.75
2018-09-17T06:43:38.498Z,976.73
2018-09-17T06:44:38.522Z,976.73
2018-09-17T06:45:38.578Z,976.71
2018-09-17T06:46:38.626Z,976.71
2018-09-17T06:47:38.680Z,976.69
2018-09-17T06:48:38.895Z,976.71
2018-09-17T06:49:38.777Z,976.71
2018-09-17T06:50:38.835Z,976.71
2018-09-17T06:51:38.880Z,976.72
2018-09-17T06:52:38.941Z,976.70
2018-09-17T06:53:39.059Z,976.71
2018-09-17T06:54:39.059Z,976.71
2018-09-17T06:55:39.199Z,976.73
2018-09-17T06:56:39.131Z,976.75
2018-09-17T06:57:39.190Z,976.74
2018-09-17T06:58:39.240Z,976.77
2018-09-17T06:59:39.306Z,976.76
2018-09-17T07:00:39.336Z,976.80
2018-09-17T07:01:39.394Z,976.83
2018-09-17T07:02:39.550Z,976.78
2018-09-17T07:03:39.496Z,976.78
2018-09-17T07:04:39.562Z,976.80
2018-09-17T07:05:39.610Z,976.81
2018-09-17T07:06:39.657Z,976.79
2018-09-17T07:07:39.702Z,976.79
2018-09-17T07:08:39.742Z,976.76
2018-09-17T07:09:39.890Z,976.77
2018-09-17T07:10:39.850Z,976.74
2018-09-17T07:11:39.898Z,976.73
2018-09-17T07:12:39.949Z,976.73
2018-09-17T07:13:40.007Z,976.72
2018-09-17T07:14:40.093Z,976.75
2018-09-17T07:15:40.105Z,976.69
2018-09-17T07:16:40.191Z,976.75
2018-09-17T07:17:40.210Z,976.72
2018-09-17T07:18:40.257Z,976.70
2018-09-17T07:19:40.344Z,976.68
2018-09-17T07:20:40.396Z,976.68
2018-09-17T07:21:40.414Z,976.70
2018-09-17T07:22:40.492Z,976.68
2018-09-17T07:23:40.513Z,976.70
2018-09-17T07:24:40.566Z,976.72
2018-09-17T07:25:40.646Z,976.74
2018-09-17T07:26:40.673Z,976.71
2018-09-17T07:27:40.727Z,976.74
2018-09-17T07:28:40.778Z,976.72
2018-09-17T07:29:40.833Z,976.76
2018-09-17T07:30:40.900Z,976.72
2018-09-17T07:31:40.950Z,976.73
2018-09-17T07:32:41.004Z,976.69
2018-09-17T07:33:41.053Z,976.66
2018-09-17T07:34:41.096Z,976.67
2018-09-17T07:35:41.145Z,976.65
2018-09-17T07:36:41.245Z,976.65
2018-09-17T07:37:41.253Z,976.64
2018-09-17T07:38:41.313Z,976.68
2018-09-17T07:39:41.360Z,976.70
2018-09-17T07:40:41.415Z,976.71
2018-09-17T07:41:41.486Z,976.73
2018-09-17T07:42:41.612Z,976.68
2018-09-17T07:43:41.572Z,976.77
2018-09-17T07:44:41.624Z,976.73
2018-09-17T07:45:41.682Z,976.70
2018-09-17T07:46:41.757Z,976.67
2018-09-17T07:47:41.787Z,976.67
2018-09-17T07:48:42.678Z,976.65
2018-09-17T07:49:41.891Z,976.61
2018-09-17T07:50:41.964Z,976.63
2018-09-17T07:51:41.998Z,976.61
2018-09-17T07:52:42.050Z,976.59
2018-09-17T07:53:42.107Z,976.61
2018-09-17T07:54:43.680Z,976.59
2018-09-17T07:55:42.238Z,976.61
2018-09-17T07:56:42.266Z,976.58
2018-09-17T07:57:42.334Z,976.59
2018-09-17T07:58:42.370Z,976.55
2018-09-17T07:59:42.429Z,976.58
2018-09-17T08:00:42.500Z,976.60
2018-09-17T08:01:42.539Z,976.57
2018-09-17T08:02:42.610Z,976.61
2018-09-17T08:03:42.649Z,976.59
2018-09-17T08:04:42.699Z,976.56
2018-09-17T08:05:42.773Z,976.57
2018-09-17T08:06:42.816Z,976.56
2018-09-17T08:07:42.880Z,976.51
2018-09-17T08:08:42.920Z,976.50
2018-09-17T08:09:42.975Z,976.47
2018-09-17T08:10:43.024Z,976.43
2018-09-17T08:11:43.097Z,976.44
2018-09-17T08:12:43.153Z,976.44
2018-09-17T08:13:43.200Z,976.49
2018-09-17T08:14:43.242Z,976.46
2018-09-17T08:15:43.299Z,976.44
2018-09-17T08:16:43.371Z,976.45
2018-09-17T08:17:43.410Z,976.42
2018-09-17T08:18:43.461Z,976.42
2018-09-17T08:19:43.601Z,976.42
2018-09-17T08:20:44.191Z,976.41
2018-09-17T08:21:43.662Z,976.39
2018-09-17T08:22:43.706Z,976.37
2018-09-17T08:23:43.742Z,976.36
2018-09-17T08:24:43.805Z,976.39
2018-09-17T08:25:43.845Z,976.33
2018-09-17T08:26:43.904Z,976.34
2018-09-17T08:27:43.957Z,976.32
2018-09-17T08:28:44.015Z,976.33
2018-09-17T08:29:44.090Z,976.33
2018-09-17T08:30:44.117Z,976.29
2018-09-17T08:31:44.170Z,976.32
2018-09-17T08:32:44.231Z,976.27
2018-09-17T08:33:44.284Z,976.33
2018-09-17T08:34:44.366Z,976.30
2018-09-17T08:35:44.411Z,976.28
2018-09-17T08:36:45.001Z,976.29
2018-09-17T08:37:44.505Z,976.30
2018-09-17T08:38:44.564Z,976.29
2018-09-17T08:39:44.637Z,976.30
2018-09-17T08:40:44.692Z,976.26
2018-09-17T08:41:44.722Z,976.26
2018-09-17T08:42:44.785Z,976.28
2018-09-17T08:43:44.838Z,976.27
2018-09-17T08:44:44.888Z,976.25
2018-09-17T08:45:44.965Z,976.22
2018-09-17T08:46:45.000Z,976.20
2018-09-17T08:47:45.054Z,976.21
2018-09-17T08:48:45.123Z,976.21
2018-09-17T08:49:45.166Z,976.17
2018-09-17T08:50:45.249Z,976.15
2018-09-17T08:51:45.280Z,976.15
2018-09-17T08:52:45.394Z,976.14
2018-09-17T08:53:45.396Z,976.18
2018-09-17T08:54:45.445Z,976.15
2018-09-17T08:55:45.533Z,976.15
2018-09-17T08:56:45.566Z,976.16
2018-09-17T08:57:45.632Z,976.12
2018-09-17T08:58:45.671Z,976.11
2018-09-17T08:59:45.731Z,976.06
2018-09-17T09:00:45.792Z,976.04
2018-09-17T09:01:45.869Z,976.01
2018-09-17T09:02:45.915Z,976.00
2018-09-17T09:03:45.954Z,975.99
2018-09-17T09:04:46.029Z,975.94
2018-09-17T09:05:46.073Z,975.96
2018-09-17T09:06:46.121Z,975.94
2018-09-17T09:07:46.230Z,975.94
2018-09-17T09:08:46.239Z,975.92
2018-09-17T09:09:46.291Z,975.93
2018-09-17T09:10:46.365Z,975.91
2018-09-17T09:11:46.416Z,975.91
2018-09-17T09:12:46.497Z,975.85
2018-09-17T09:13:46.528Z,975.88
2018-09-17T09:14:46.587Z,975.88
2018-09-17T09:15:46.631Z,975.85
2018-09-17T09:16:46.689Z,975.92
2018-09-17T09:17:46.768Z,975.90
2018-09-17T09:18:47.759Z,975.89
2018-09-17T09:19:46.857Z,975.87
2018-09-17T09:20:46.913Z,975.87
2018-09-17T09:21:47.721Z,975.87
2018-09-17T09:22:47.045Z,975.88
2018-09-17T09:23:47.084Z,975.82
2018-09-17T09:24:47.147Z,975.81
2018-09-17T09:25:47.196Z,975.83
2018-09-17T09:26:47.256Z,975.83
2018-09-17T09:27:47.337Z,975.79
2018-09-17T09:28:47.369Z,975.77
2018-09-17T09:29:47.440Z,975.81
2018-09-17T09:30:47.526Z,975.79
2018-09-17T09:31:47.544Z,975.81
2018-09-17T09:32:47.640Z,975.77
2018-09-17T09:33:47.695Z,975.78
2018-09-17T09:34:47.709Z,975.77
2018-09-17T09:35:47.774Z,975.77
2018-09-17T09:36:47.846Z,975.76
2018-09-17T09:37:47.884Z,975.78
2018-09-17T09:38:47.942Z,975.77
2018-09-17T09:39:47.995Z,975.78
2018-09-17T09:40:48.054Z,975.73
2018-09-17T09:41:48.131Z,975.75
2018-09-17T09:42:48.165Z,975.75
2018-09-17T09:43:48.223Z,975.75
2018-09-17T09:44:48.287Z,975.72
2018-09-17T09:45:48.360Z,975.69
2018-09-17T09:46:48.417Z,975.66
2018-09-17T09:47:48.459Z,975.67
2018-09-17T09:48:48.510Z,975.64
2018-09-17T09:49:48.591Z,975.64
2018-09-17T09:50:48.635Z,975.65
2018-09-17T09:51:48.683Z,975.64
2018-09-17T09:52:48.806Z,975.62
2018-09-17T09:53:48.799Z,975.63
2018-09-17T09:54:48.868Z,975.61
2018-09-17T09:55:48.906Z,975.65
2018-09-17T09:56:48.961Z,975.66
2018-09-17T09:57:49.016Z,975.63
2018-09-17T09:58:49.089Z,975.64
2018-09-17T09:59:49.153Z,975.63
2018-09-17T10:00:49.188Z,975.66
2018-09-17T10:01:49.245Z,975.64
2018-09-17T10:02:49.321Z,975.65
2018-09-17T10:03:49.392Z,975.64
2018-09-17T10:04:49.440Z,975.66
2018-09-17T10:05:49.477Z,975.65
2018-09-17T10:06:49.557Z,975.62
2018-09-17T10:07:49.625Z,975.61
2018-09-17T10:08:49.649Z,975.61
2018-09-17T10:09:49.720Z,975.60
2018-09-17T10:10:49.787Z,975.58
2018-09-17T10:11:49.825Z,975.62
2018-09-17T10:12:49.890Z,975.61
2018-09-17T10:13:49.920Z,975.59
2018-09-17T10:14:49.984Z,975.58
2018-09-17T10:15:50.070Z,975.57
2018-09-17T10:16:50.119Z,975.54
2018-09-17T10:17:50.159Z,975.54
2018-09-17T10:18:50.219Z,975.51
2018-09-17T10:19:50.269Z,975.48
2018-09-17T10:20:50.350Z,975.47
2018-09-17T10:21:50.388Z,975.50
2018-09-17T10:22:50.433Z,975.45
2018-09-17T10:23:50.598Z,975.51
2018-09-17T10:24:50.553Z,975.44
2018-09-17T10:25:50.657Z,975.48
2018-09-17T10:26:50.663Z,975.43
2018-09-17T10:27:50.723Z,975.39
2018-09-17T10:28:50.781Z,975.41
2018-09-17T10:29:50.836Z,975.40
2018-09-17T10:30:50.950Z,975.39
2018-09-17T10:31:50.963Z,975.35
2018-09-17T10:32:51.033Z,975.32
2018-09-17T10:33:51.076Z,975.31
2018-09-17T10:34:51.118Z,975.31
2018-09-17T10:35:51.177Z,975.29
2018-09-17T10:36:51.226Z,975.29
2018-09-17T10:37:51.306Z,975.25
2018-09-17T10:38:51.351Z,975.30
2018-09-17T10:39:51.414Z,975.30
2018-09-17T10:40:51.455Z,975.28
2018-09-17T10:41:51.536Z,975.23
2018-09-17T10:42:51.588Z,975.27
2018-09-17T10:43:51.626Z,975.25
2018-09-17T10:44:51.693Z,975.21
2018-09-17T10:45:51.741Z,975.21
2018-09-17T10:46:51.816Z,975.16
2018-09-17T10:47:51.868Z,975.21
2018-09-17T10:48:51.909Z,975.18
2018-09-17T10:49:52.764Z,975.22
2018-09-17T10:50:52.014Z,975.17
2018-09-17T10:51:52.074Z,975.21
2018-09-17T10:52:52.168Z,975.17
2018-09-17T10:53:52.182Z,975.20
2018-09-17T10:54:52.237Z,975.20
2018-09-17T10:55:52.306Z,975.22
2018-09-17T10:56:52.378Z,975.17
2018-09-17T10:57:52.422Z,975.18
2018-09-17T10:58:52.476Z,975.17
2018-09-17T10:59:52.516Z,975.14
2018-09-17T11:00:52.569Z,975.16
2018-09-17T11:01:52.637Z,975.15
2018-09-17T11:02:52.682Z,975.13
2018-09-17T11:03:52.808Z,975.10
2018-09-17T11:04:52.830Z,975.12
2018-09-17T11:05:52.850Z,975.12
2018-09-17T11:06:53.772Z,975.11
2018-09-17T11:07:52.968Z,975.09
2018-09-17T11:08:53.055Z,975.07
2018-09-17T11:09:53.089Z,975.05
2018-09-17T11:10:53.133Z,975.03
2018-09-17T11:11:53.204Z,975.08
2018-09-17T11:12:53.250Z,975.04
2018-09-17T11:13:53.353Z,975.00
2018-09-17T11:14:53.384Z,975.02
2018-09-17T11:15:53.426Z,974.96
2018-09-17T11:16:53.477Z,974.98
2018-09-17T11:17:53.539Z,974.96
2018-09-17T11:18:53.618Z,974.92
2018-09-17T11:19:53.651Z,974.94
2018-09-17T11:20:53.709Z,974.91
2018-09-17T11:21:54.585Z,974.91
2018-09-17T11:22:53.838Z,974.93
2018-09-17T11:23:53.894Z,974.92
2018-09-17T11:24:53.946Z,974.90
2018-09-17T11:25:53.989Z,974.91
2018-09-17T11:26:54.041Z,974.90
2018-09-17T11:27:54.093Z,974.90
2018-09-17T11:28:54.150Z,974.90
2018-09-17T11:29:54.235Z,974.90
2018-09-17T11:30:54.261Z,974.93
2018-09-17T11:31:54.321Z,974.93
2018-09-17T11:32:54.373Z,974.93
2018-09-17T11:33:54.429Z,974.96
2018-09-17T11:34:54.507Z,974.89
2018-09-17T11:35:54.569Z,974.92
2018-09-17T11:36:54.603Z,974.92
2018-09-17T11:37:54.674Z,974.90
2018-09-17T11:38:54.719Z,974.91
2018-09-17T11:39:54.790Z,974.93
2018-09-17T11:40:54.886Z,974.89
2018-09-17T11:41:54.879Z,974.90
2018-09-17T11:42:54.935Z,974.88
2018-09-17T11:43:54.993Z,974.88
2018-09-17T11:44:55.082Z,974.91
2018-09-17T11:45:55.115Z,974.89
2018-09-17T11:46:55.152Z,974.90
2018-09-17T11:47:55.207Z,974.89
2018-09-17T11:48:55.269Z,974.88
2018-09-17T11:49:55.352Z,974.86
2018-09-17T11:50:55.383Z,974.90
2018-09-17T11:51:55.437Z,974.84
2018-09-17T11:52:55.485Z,974.86
2018-09-17T11:53:55.553Z,974.86
2018-09-17T11:54:55.633Z,974.82
2018-09-17T11:55:55.652Z,974.84
2018-09-17T11:56:55.712Z,974.83
2018-09-17T11:57:55.762Z,974.85
2018-09-17T11:58:55.818Z,974.79
2018-09-17T11:59:55.901Z,974.83
2018-09-17T12:00:55.943Z,974.79
2018-09-17T12:01:56.067Z,974.80
2018-09-17T12:02:56.042Z,974.81
2018-09-17T12:03:56.107Z,974.75
2018-09-17T12:04:56.160Z,974.78
2018-09-17T12:05:56.206Z,974.75
2018-09-17T12:06:56.312Z,974.69
2018-09-17T12:07:56.327Z,974.67
2018-09-17T12:08:56.372Z,974.72
2018-09-17T12:09:56.428Z,974.66
2018-09-17T12:10:56.487Z,974.63
2018-09-17T12:11:56.583Z,974.61
2018-09-17T12:12:56.600Z,974.60
2018-09-17T12:13:56.656Z,974.65
2018-09-17T12:14:56.709Z,974.57
2018-09-17T12:15:56.769Z,974.59
2018-09-17T12:16:56.839Z,974.53
2018-09-17T12:17:56.882Z,974.52
2018-09-17T12:18:56.935Z,974.54
2018-09-17T12:19:56.999Z,974.51
2018-09-17T12:20:57.049Z,974.49
2018-09-17T12:21:57.146Z,974.49
2018-09-17T12:22:57.166Z,974.52
2018-09-17T12:23:57.229Z,974.53
2018-09-17T12:24:57.277Z,974.54
2018-09-17T12:25:57.341Z,974.52
2018-09-17T12:26:57.427Z,974.48
2018-09-17T12:27:57.446Z,974.49
2018-09-17T12:28:57.537Z,974.50